Time;durP1;ratioP1;P1;durP2;ratioP2;P2;SDS_P1;SDS_P2;PMS_P1;PMS_P2;Temp;Humidity;BMP_temperature;BMP_pressure;BME280_temperature;BME280_humidity;BME280_pressure;Samples;Min_cycle;Max_cycle;Signal;HPM_P1;HPM_P2
2023/07/15 00:01:27;;;;;;;8.07;4.20;;;18.30;37.30;;;;;;5061244;28;48301;-82
2023/07/15 00:03:54;;;;;;;8.40;4.10;;;18.30;38.50;;;;;;5078184;28;46400;-80
2023/07/15 00:06:21;;;;;;;8.87;4.83;;;18.30;37.40;;;;;;5062506;28;46451;-81
2023/07/15 00:08:50;;;;;;;8.53;4.43;;;18.40;37.50;;;;;;5060732;28;46420;-82
2023/07/15 00:11:22;;;;;;;8.10;4.93;;;18.40;37.40;;;;;;5080039;28;46976;-82
2023/07/15 00:13:47;;;;;;;9.97;4.73;;;18.40;37.50;;;;;;5075602;28;46411;-81
2023/07/15 00:16:13;;;;;;;11.10;5.03;;;18.50;37.60;;;;;;5079248;28;46956;-81
2023/07/15 00:18:38;;;;;;;8.00;5.30;;;18.40;37.80;;;;;;5061003;28;46513;-80
2023/07/15 00:21:22;;;;;;;7.97;5.30;;;18.50;37.90;;;;;;5079481;28;46379;-81
2023/07/15 00:23:55;;;;;;;7.63;4.50;;;18.50;38.20;;;;;;5076994;27;46406;-81
2023/07/15 00:26:23;;;;;;;7.37;4.77;;;18.50;37.80;;;;;;5080003;28;46468;-80
2023/07/15 00:28:51;;;;;;;8.47;5.23;;;18.60;37.80;;;;;;5079665;28;46528;-82
2023/07/15 00:31:19;;;;;;;21.47;5.90;;;18.50;37.80;;;;;;5079870;28;46497;-81
2023/07/15 00:33:46;;;;;;;9.47;5.77;;;18.50;38.00;;;;;;5078349;28;46565;-78
2023/07/15 00:36:13;;;;;;;9.80;5.17;;;18.50;38.10;;;;;;5081256;28;46143;-82
2023/07/15 00:38:41;;;;;;;7.83;5.23;;;18.50;38.40;;;;;;5080090;28;46424;-83
2023/07/15 00:41:20;;;;;;;8.43;5.37;;;18.50;38.60;;;;;;5080844;28;46741;-83
2023/07/15 00:44:14;;;;;;;10.90;5.90;;;18.50;38.90;;;;;;5081779;28;46589;-78
2023/07/15 00:47:01;;;;;;;11.63;5.60;;;18.50;38.80;;;;;;5082387;28;46662;-81
2023/07/15 00:49:30;;;;;;;8.10;5.60;;;18.50;39.00;;;;;;5074866;27;46438;-81
2023/07/15 00:52:14;;;;;;;8.77;5.63;;;18.50;38.80;;;;;;5077341;28;46486;-81
2023/07/15 00:54:46;;;;;;;11.33;5.80;;;18.50;39.00;;;;;;5079218;28;46454;-81
2023/07/15 00:57:15;;;;;;;9.83;5.17;;;18.50;39.00;;;;;;5076115;28;46550;-81
2023/07/15 00:59:42;;;;;;;7.53;5.00;;;18.50;39.10;;;;;;5078989;28;46513;-82
2023/07/15 01:02:11;;;;;;;8.00;4.90;;;18.40;39.00;;;;;;5077158;28;49446;-81
2023/07/15 01:04:37;;;;;;;11.17;5.03;;;18.40;38.90;;;;;;5078646;28;46440;-82
2023/07/15 01:07:04;;;;;;;9.47;5.20;;;18.40;38.90;;;;;;5079568;28;47308;-82
2023/07/15 01:09:31;;;;;;;9.33;5.70;;;18.40;39.00;;;;;;5078259;28;46499;-81
2023/07/15 01:11:56;;;;;;;8.23;5.43;;;18.40;39.00;;;;;;5077456;28;47981;-81
2023/07/15 01:14:22;;;;;;;10.23;5.53;;;18.30;39.40;;;;;;5079882;28;46434;-81
2023/07/15 01:16:47;;;;;;;11.40;6.00;;;18.20;39.60;;;;;;5080371;28;46736;-82
2023/07/15 01:19:18;;;;;;;11.00;5.67;;;18.10;39.80;;;;;;5078629;28;46040;-83
2023/07/15 01:21:50;;;;;;;8.17;5.23;;;18.00;40.10;;;;;;5079276;28;46537;-80
2023/07/15 01:24:19;;;;;;;8.57;5.50;;;18.00;40.30;;;;;;5079919;28;45790;-81
2023/07/15 01:26:46;;;;;;;13.33;5.33;;;18.00;40.40;;;;;;5076879;28;46996;-81
2023/07/15 01:29:13;;;;;;;12.83;4.83;;;17.90;40.40;;;;;;5078901;28;46892;-82
2023/07/15 01:31:40;;;;;;;11.37;5.90;;;17.90;40.50;;;;;;5061006;28;49122;-81
2023/07/15 01:34:07;;;;;;;7.77;4.97;;;18.00;40.50;;;;;;5079820;28;46438;-81
2023/07/15 01:36:33;;;;;;;8.80;5.20;;;18.10;40.70;;;;;;5078231;28;46859;-81
2023/07/15 01:38:58;;;;;;;12.77;6.10;;;17.90;40.50;;;;;;5060695;28;46949;-82
2023/07/15 01:41:24;;;;;;;10.57;4.90;;;17.90;40.60;;;;;;5060239;28;49399;-81
2023/07/15 01:43:49;;;;;;;14.33;5.20;;;17.90;40.90;;;;;;5079287;28;46498;-81
2023/07/15 01:46:15;;;;;;;8.00;5.03;;;17.90;41.20;;;;;;5078189;28;46977;-82
2023/07/15 01:48:41;;;;;;;12.33;5.10;;;17.80;41.30;;;;;;5078011;28;46545;-82
2023/07/15 01:51:06;;;;;;;9.27;5.07;;;17.80;41.40;;;;;;5078323;28;48278;-81
2023/07/15 01:53:32;;;;;;;15.93;5.00;;;17.80;41.20;;;;;;5079249;28;46493;-82
2023/07/15 01:55:57;;;;;;;10.83;5.30;;;17.80;41.50;;;;;;5075956;28;46772;-82
2023/07/15 01:58:23;;;;;;;11.33;4.77;;;17.80;41.50;;;;;;5079265;28;46434;-81
2023/07/15 02:00:48;;;;;;;11.43;4.20;;;17.90;41.60;;;;;;5060188;28;47985;-81
2023/07/15 02:03:15;;;;;;;10.40;4.83;;;17.70;41.60;;;;;;5078380;28;46396;-81
2023/07/15 02:05:40;;;;;;;9.07;5.30;;;17.90;41.80;;;;;;5079321;28;46700;-82
2023/07/15 02:08:06;;;;;;;7.77;4.67;;;17.90;41.30;;;;;;5078030;28;46458;-81
2023/07/15 02:10:32;;;;;;;8.20;4.90;;;18.00;42.40;;;;;;5059812;28;48614;-81
2023/07/15 02:12:57;;;;;;;7.83;4.40;;;18.00;42.70;;;;;;5077984;28;46591;-81
2023/07/15 02:15:23;;;;;;;12.30;5.47;;;18.00;42.70;;;;;;5077676;28;46866;-80
2023/07/15 02:17:49;;;;;;;12.23;5.00;;;18.20;43.40;;;;;;5076837;28;46461;-81
2023/07/15 02:20:15;;;;;;;11.73;4.63;;;18.10;43.80;;;;;;5065839;28;48281;-81
2023/07/15 02:22:41;;;;;;;8.93;4.83;;;18.10;43.80;;;;;;5078715;28;46161;-83
2023/07/15 02:25:07;;;;;;;7.10;4.80;;;18.30;44.10;;;;;;5078660;28;46479;-81
2023/07/15 02:27:32;;;;;;;9.20;5.00;;;18.10;44.10;;;;;;5078371;28;46851;-82
2023/07/15 02:29:58;;;;;;;14.10;5.50;;;18.10;44.40;;;;;;5079838;28;46335;-81
2023/07/15 02:32:39;;;;;;;9.27;5.33;;;18.10;45.00;;;;;;5079090;28;47731;-81
2023/07/15 02:35:10;;;;;;;10.00;5.50;;;18.20;45.40;;;;;;5077808;28;46457;-81
2023/07/15 02:37:37;;;;;;;8.13;4.70;;;18.10;45.30;;;;;;5075381;28;46609;-81
2023/07/15 02:40:06;;;;;;;7.37;4.47;;;18.10;44.80;;;;;;5076243;28;48469;-82
2023/07/15 02:42:36;;;;;;;9.77;6.00;;;18.10;45.90;;;;;;5078084;28;46399;-82
2023/07/15 02:45:05;;;;;;;8.63;5.30;;;18.10;45.90;;;;;;5075945;28;46563;-81
2023/07/15 02:47:34;;;;;;;8.77;5.30;;;18.00;45.80;;;;;;5080225;27;46613;-82
2023/07/15 02:50:05;;;;;;;8.10;4.83;;;18.00;45.10;;;;;;5080817;28;46281;-81
2023/07/15 02:52:35;;;;;;;7.73;5.07;;;18.00;46.20;;;;;;5062867;28;46882;-80
2023/07/15 02:55:05;;;;;;;14.37;4.90;;;18.00;46.30;;;;;;5081484;28;46984;-81
2023/07/15 02:57:32;;;;;;;13.73;5.10;;;18.00;46.50;;;;;;5080757;28;46502;-81
2023/07/15 02:59:57;;;;;;;7.33;4.30;;;18.00;45.90;;;;;;5079503;28;48495;-81
2023/07/15 03:02:24;;;;;;;13.37;4.70;;;18.00;46.70;;;;;;5079159;28;46409;-81
2023/07/15 03:04:50;;;;;;;9.90;4.90;;;18.00;46.60;;;;;;5079215;28;46386;-81
2023/07/15 03:07:16;;;;;;;10.43;5.50;;;17.90;46.60;;;;;;5081223;28;46435;-82
2023/07/15 03:09:42;;;;;;;12.83;5.17;;;18.00;46.90;;;;;;5081440;28;46395;-82
2023/07/15 03:12:09;;;;;;;12.63;5.60;;;17.80;47.00;;;;;;5080218;28;46401;-81
2023/07/15 03:14:35;;;;;;;15.77;5.40;;;17.70;47.10;;;;;;5063107;28;46581;-81
2023/07/15 03:17:01;;;;;;;11.07;5.03;;;17.60;47.20;;;;;;5080574;28;46668;-81
2023/07/15 03:19:27;;;;;;;20.47;5.80;;;17.60;47.50;;;;;;5080789;28;46645;-81
2023/07/15 03:21:52;;;;;;;16.77;5.60;;;17.60;47.80;;;;;;5081130;28;45800;-81
2023/07/15 03:24:18;;;;;;;13.43;5.40;;;17.50;47.80;;;;;;5080414;28;46402;-81
2023/07/15 03:26:44;;;;;;;9.93;4.97;;;17.50;47.90;;;;;;5080262;28;46583;-81
2023/07/15 03:29:10;;;;;;;22.30;6.20;;;17.50;47.90;;;;;;5080571;28;46477;-80
2023/07/15 03:31:36;;;;;;;18.63;5.37;;;17.40;47.80;;;;;;5080941;28;46422;-82
2023/07/15 03:34:02;;;;;;;16.50;5.33;;;17.50;47.90;;;;;;5078019;28;46509;-81
2023/07/15 03:36:27;;;;;;;15.23;4.73;;;17.50;47.90;;;;;;5081123;28;46501;-81
2023/07/15 03:38:53;;;;;;;14.93;5.57;;;17.40;47.80;;;;;;5061822;28;48550;-81
2023/07/15 03:41:19;;;;;;;16.53;4.77;;;17.40;47.90;;;;;;5080335;28;46823;-81
2023/07/15 03:43:45;;;;;;;11.20;5.33;;;17.40;47.90;;;;;;5080011;28;46533;-81
2023/07/15 03:46:12;;;;;;;8.67;5.23;;;17.50;47.80;;;;;;5080514;28;46624;-81
2023/07/15 03:48:38;;;;;;;10.53;4.77;;;17.50;47.50;;;;;;5077941;28;46410;-81
2023/07/15 03:51:04;;;;;;;13.40;4.67;;;17.60;47.30;;;;;;5060792;28;46515;-81
2023/07/15 03:53:30;;;;;;;6.40;4.30;;;17.80;47.20;;;;;;5080566;28;46943;-81
2023/07/15 03:55:55;;;;;;;8.03;4.40;;;17.90;47.00;;;;;;5080454;28;46268;-81
2023/07/15 03:58:21;;;;;;;8.97;4.90;;;18.00;46.80;;;;;;5060141;28;46995;-81
2023/07/15 04:00:46;;;;;;;8.20;5.70;;;18.10;46.60;;;;;;5079933;28;46534;-82
2023/07/15 04:03:12;;;;;;;9.93;4.97;;;18.20;46.20;;;;;;5079478;28;46491;-81
2023/07/15 04:05:38;;;;;;;7.90;4.73;;;18.30;46.10;;;;;;5078689;28;46787;-82
2023/07/15 04:08:03;;;;;;;10.30;4.30;;;18.40;45.10;;;;;;5079582;28;47158;-80
2023/07/15 04:10:29;;;;;;;10.37;4.23;;;18.40;46.20;;;;;;5080022;28;46493;-82
2023/07/15 04:12:55;;;;;;;6.10;3.87;;;18.60;46.40;;;;;;5080435;28;45883;-81
2023/07/15 04:15:20;;;;;;;11.27;4.30;;;18.60;46.30;;;;;;5083106;28;47144;-83
2023/07/15 04:17:46;;;;;;;12.57;4.60;;;18.60;46.50;;;;;;5083415;28;47902;-81
2023/07/15 04:20:17;;;;;;;8.63;4.03;;;18.70;45.40;;;;;;5079107;28;46423;-81
2023/07/15 04:22:43;;;;;;;8.90;4.47;;;18.70;46.50;;;;;;5079458;28;46449;-81
2023/07/15 04:25:11;;;;;;;7.80;4.10;;;18.80;46.00;;;;;;5079749;28;46576;-81
2023/07/15 04:27:38;;;;;;;9.73;4.40;;;18.80;45.70;;;;;;5081497;28;47526;-81
2023/07/15 04:30:05;;;;;;;9.70;4.20;;;18.90;44.40;;;;;;5078805;28;46468;-80
2023/07/15 04:32:30;;;;;;;12.33;4.67;;;19.00;45.20;;;;;;5060133;28;46522;-81
2023/07/15 04:34:56;;;;;;;8.50;4.10;;;19.00;45.00;;;;;;5075837;28;46645;-78
2023/07/15 04:37:22;;;;;;;10.10;4.40;;;19.10;45.00;;;;;;5078333;28;46367;-80
2023/07/15 04:39:48;;;;;;;6.90;3.90;;;19.20;43.90;;;;;;5078328;28;46606;-82
2023/07/15 04:42:14;;;;;;;9.23;4.10;;;19.20;44.80;;;;;;5079328;28;46720;-80
2023/07/15 04:44:39;;;;;;;12.83;4.30;;;19.30;44.70;;;;;;5078266;28;46497;-81
2023/07/15 04:47:05;;;;;;;11.03;4.80;;;19.40;44.40;;;;;;5067998;28;49236;-79
2023/07/15 04:49:30;;;;;;;16.60;5.50;;;19.50;43.90;;;;;;5079364;28;46749;-80
2023/07/15 04:51:56;;;;;;;8.20;4.13;;;19.80;42.70;;;;;;5079399;28;46483;-81
2023/07/15 04:54:22;;;;;;;8.10;4.00;;;21.10;40.20;;;;;;5024647;28;46415;-82
2023/07/15 04:56:48;;;;;;;7.50;3.57;;;23.10;36.90;;;;;;5063387;27;46174;-82
2023/07/15 04:59:13;;;;;;;11.03;3.80;;;24.80;31.50;;;;;;5067192;28;46688;-83
2023/07/15 05:01:39;;;;;;;9.90;3.30;;;25.80;28.30;;;;;;5079461;28;46534;-82
2023/07/15 05:04:05;;;;;;;8.43;3.20;;;26.70;26.90;;;;;;5079473;28;47738;-77
2023/07/15 05:06:31;;;;;;;12.73;3.70;;;27.70;23.90;;;;;;5079547;28;46641;-82
2023/07/15 05:08:57;;;;;;;5.93;3.50;;;28.50;21.50;;;;;;5060531;28;46547;-80
2023/07/15 05:11:25;;;;;;;5.90;3.60;;;29.00;19.30;;;;;;5078938;28;46623;-82
2023/07/15 05:13:51;;;;;;;5.63;2.80;;;29.80;17.00;;;;;;5078476;28;46434;-80
2023/07/15 05:16:17;;;;;;;5.10;2.77;;;30.30;15.50;;;;;;5078343;28;47555;-81
2023/07/15 05:18:42;;;;;;;6.47;3.30;;;30.80;13.30;;;;;;5078686;28;47318;-83
2023/07/15 05:21:08;;;;;;;5.87;2.90;;;31.10;11.80;;;;;;5078421;28;46203;-80
2023/07/15 05:23:33;;;;;;;9.07;2.63;;;31.50;10.60;;;;;;5079148;28;46061;-84
2023/07/15 05:25:59;;;;;;;7.60;2.83;;;31.90;9.40;;;;;;5079357;28;46433;-82
2023/07/15 05:28:30;;;;;;;6.87;2.70;;;32.30;7.40;;;;;;5075211;28;46405;-83
2023/07/15 05:30:58;;;;;;;5.87;3.20;;;32.60;7.50;;;;;;5077121;28;46279;-81
2023/07/15 05:33:23;;;;;;;7.53;2.90;;;32.90;5.90;;;;;;5059820;28;46580;-82
2023/07/15 05:35:49;;;;;;;8.33;2.80;;;32.90;4.80;;;;;;5078726;28;48888;-82
2023/07/15 05:38:14;;;;;;;6.53;3.00;;;33.20;4.40;;;;;;5078498;28;46422;-83
2023/07/15 05:40:41;;;;;;;4.17;2.50;;;33.60;4.60;;;;;;5078038;28;46332;-83
2023/07/15 05:43:07;;;;;;;5.80;2.57;;;34.00;2.60;;;;;;5080778;27;46583;-81
2023/07/15 05:45:33;;;;;;;4.20;2.77;;;34.40;1.80;;;;;;5079727;28;47076;-85
2023/07/15 05:47:58;;;;;;;7.53;2.80;;;34.60;1.00;;;;;;5080419;28;46880;-87
2023/07/15 05:50:24;;;;;;;5.80;2.33;;;34.70;1.00;;;;;;5079646;28;46736;-85
2023/07/15 05:52:50;;;;;;;5.43;2.60;;;35.10;1.00;;;;;;5080379;28;46881;-85
2023/07/15 05:55:18;;;;;;;5.73;2.53;;;35.30;1.00;;;;;;5081857;28;46838;-89
2023/07/15 05:57:44;;;;;;;3.37;2.33;;;35.20;1.00;;;;;;5082324;27;46612;-84
2023/07/15 06:00:10;;;;;;;3.87;2.57;;;35.30;1.00;;;;;;5082798;28;46418;-83
2023/07/15 06:02:38;;;;;;;6.53;2.40;;;34.70;1.00;;;;;;5066036;28;45942;-87
2023/07/15 06:05:04;;;;;;;4.90;2.23;;;33.50;2.40;;;;;;5066788;28;48404;-85
2023/07/15 06:07:30;;;;;;;6.10;2.57;;;33.10;3.60;;;;;;5079116;28;46487;-84
2023/07/15 06:09:55;;;;;;;3.43;2.20;;;32.20;5.60;;;;;;5066526;28;46395;-84
2023/07/15 06:12:21;;;;;;;3.87;2.30;;;31.20;6.80;;;;;;5079063;28;46679;-80
2023/07/15 06:14:46;;;;;;;4.53;2.33;;;30.60;8.90;;;;;;5078051;28;46889;-83
2023/07/15 06:17:12;;;;;;;4.03;2.40;;;30.00;10.10;;;;;;5081752;28;46444;-85
2023/07/15 06:19:38;;;;;;;3.70;2.30;;;29.70;11.00;;;;;;5078255;27;46430;-84
2023/07/15 06:22:03;;;;;;;4.80;2.33;;;29.30;11.60;;;;;;5081247;27;46649;-85
2023/07/15 06:24:29;;;;;;;4.37;2.43;;;29.20;12.20;;;;;;5082318;28;46563;-85
2023/07/15 06:26:55;;;;;;;6.13;2.10;;;29.00;12.60;;;;;;5082798;28;46229;-84
2023/07/15 06:29:20;;;;;;;5.03;2.50;;;28.90;12.40;;;;;;5080484;28;46463;-83
2023/07/15 06:31:46;;;;;;;4.33;2.40;;;28.80;12.40;;;;;;5083059;28;46882;-85
2023/07/15 06:34:11;;;;;;;5.60;3.03;;;28.70;12.50;;;;;;5082427;28;46878;-79
2023/07/15 06:36:37;;;;;;;5.03;2.53;;;28.60;12.60;;;;;;5082689;28;45857;-83
2023/07/15 06:39:02;;;;;;;4.30;2.77;;;28.50;13.00;;;;;;5081626;28;46768;-84
2023/07/15 06:41:28;;;;;;;6.20;2.47;;;28.60;11.90;;;;;;5081717;28;46389;-85
2023/07/15 06:43:54;;;;;;;5.40;2.50;;;28.50;11.50;;;;;;5081347;28;49148;-83
2023/07/15 06:46:19;;;;;;;6.07;3.20;;;28.40;11.50;;;;;;5062967;28;46503;-85
2023/07/15 06:48:45;;;;;;;4.17;2.37;;;28.40;11.40;;;;;;5082168;28;46479;-83
2023/07/15 06:51:14;;;;;;;6.43;3.03;;;28.50;11.20;;;;;;5079761;27;46909;-85
2023/07/15 06:53:40;;;;;;;3.90;2.30;;;28.60;10.90;;;;;;5063732;28;48264;-83
2023/07/15 06:56:05;;;;;;;5.83;2.63;;;28.50;10.70;;;;;;5081717;28;46408;-83
2023/07/15 06:58:31;;;;;;;6.87;2.70;;;28.60;10.70;;;;;;5081515;28;46499;-84
2023/07/15 07:00:57;;;;;;;4.60;2.43;;;28.60;10.80;;;;;;5064134;28;46464;-83
2023/07/15 07:03:22;;;;;;;5.50;3.00;;;28.60;10.60;;;;;;5063396;28;47977;-84
2023/07/15 07:05:48;;;;;;;8.23;3.43;;;28.70;10.40;;;;;;5082135;28;46533;-83
2023/07/15 07:08:13;;;;;;;4.23;2.40;;;28.80;10.40;;;;;;5082007;28;45811;-84
2023/07/15 07:10:39;;;;;;;5.43;2.80;;;28.80;10.30;;;;;;5082321;28;46469;-84
2023/07/15 07:13:04;;;;;;;6.13;2.60;;;28.90;10.10;;;;;;5083281;28;47561;-84
2023/07/15 07:15:30;;;;;;;4.33;2.63;;;29.00;9.90;;;;;;5081683;27;46462;-89
2023/07/15 07:17:56;;;;;;;5.10;2.93;;;29.00;8.90;;;;;;5082205;28;46459;-80
2023/07/15 07:20:22;;;;;;;5.20;3.07;;;29.00;9.80;;;;;;5081331;28;45795;-87
2023/07/15 07:22:47;;;;;;;6.20;2.90;;;29.10;9.60;;;;;;5080905;28;46883;-88
2023/07/15 07:25:14;;;;;;;5.97;2.63;;;29.20;9.50;;;;;;5082503;28;46670;-87
2023/07/15 07:27:39;;;;;;;6.73;2.80;;;29.30;9.40;;;;;;5081739;28;45868;-85
2023/07/15 07:30:06;;;;;;;4.43;2.47;;;29.40;9.40;;;;;;5082255;28;46606;-85
2023/07/15 07:32:31;;;;;;;11.30;2.60;;;29.50;9.00;;;;;;5080003;27;46655;-87
2023/07/15 07:34:58;;;;;;;4.00;2.53;;;29.50;8.70;;;;;;5082896;28;46285;-86
2023/07/15 07:37:23;;;;;;;10.50;2.60;;;29.70;9.30;;;;;;5082824;28;46949;-88
2023/07/15 07:39:49;;;;;;;5.70;2.50;;;29.80;8.00;;;;;;5083555;28;46485;-87
2023/07/15 07:42:14;;;;;;;4.33;2.63;;;29.80;7.70;;;;;;5066236;28;48979;-87
2023/07/15 07:44:40;;;;;;;10.23;2.77;;;29.80;7.60;;;;;;5066316;28;46466;-86
2023/07/15 07:47:06;;;;;;;3.87;2.27;;;29.90;7.10;;;;;;5085060;28;46537;-89
2023/07/15 07:49:31;;;;;;;4.40;2.60;;;29.90;6.90;;;;;;5084572;28;46493;-88
2023/07/15 07:51:57;;;;;;;4.80;2.07;;;30.00;6.20;;;;;;5086457;28;46502;-86
2023/07/15 07:54:22;;;;;;;5.20;2.93;;;30.00;6.20;;;;;;5064505;28;46937;-87
2023/07/15 07:56:48;;;;;;;4.50;2.60;;;30.10;6.20;;;;;;5064677;28;46382;-86
2023/07/15 07:59:13;;;;;;;5.50;2.40;;;30.20;7.30;;;;;;5082483;28;46655;-88
2023/07/15 08:01:39;;;;;;;4.90;2.53;;;30.30;6.30;;;;;;5081373;28;46548;-87
2023/07/15 08:04:05;;;;;;;8.70;3.00;;;30.40;5.30;;;;;;5063416;28;46668;-88
2023/07/15 08:06:31;;;;;;;4.70;2.53;;;30.40;5.10;;;;;;5062282;28;46369;-87
2023/07/15 08:08:56;;;;;;;5.50;2.70;;;30.50;4.60;;;;;;5081172;28;46568;-85
2023/07/15 08:11:22;;;;;;;6.03;2.60;;;30.50;3.90;;;;;;5079165;28;48896;-86
2023/07/15 08:13:48;;;;;;;6.23;2.27;;;30.50;3.40;;;;;;5062244;28;46482;-86
2023/07/15 08:16:33;;;;;;;4.50;2.13;;;30.60;3.40;;;;;;5082744;28;46358;-89
2023/07/15 08:19:00;;;;;;;5.77;2.20;;;30.90;1.80;;;;;;5062219;28;45859;-88
2023/07/15 08:21:26;;;;;;;4.20;2.30;;;31.00;1.60;;;;;;5077638;27;48448;-87
2023/07/15 08:23:53;;;;;;;4.67;2.53;;;31.10;1.20;;;;;;5082418;28;46720;-83
2023/07/15 08:26:18;;;;;;;5.00;2.30;;;31.20;1.00;;;;;;5082562;28;46905;-86
2023/07/15 08:28:44;;;;;;;7.90;2.50;;;31.30;1.00;;;;;;5061766;28;46521;-87
2023/07/15 08:31:09;;;;;;;4.90;2.40;;;31.40;1.00;;;;;;5062501;28;48083;-88
2023/07/15 08:33:35;;;;;;;10.90;2.60;;;31.50;1.00;;;;;;5081849;28;46477;-87
2023/07/15 08:36:01;;;;;;;4.47;2.30;;;31.60;1.00;;;;;;5069113;28;46602;-87
2023/07/15 08:38:26;;;;;;;4.83;2.20;;;31.80;1.00;;;;;;5081383;28;46654;-89
2023/07/15 08:40:58;;;;;;;5.57;2.30;;;31.80;1.00;;;;;;5081252;28;47539;-88
2023/07/15 08:43:24;;;;;;;4.80;2.27;;;31.90;1.00;;;;;;5080942;28;46445;-87
2023/07/15 08:45:50;;;;;;;4.47;2.47;;;31.80;1.00;;;;;;5060982;28;47083;-87
2023/07/15 08:48:16;;;;;;;3.93;2.10;;;32.00;1.00;;;;;;5079774;27;46548;-87
2023/07/15 08:50:42;;;;;;;3.70;1.90;;;32.10;1.00;;;;;;5079605;27;48154;-86
2023/07/15 08:53:08;;;;;;;4.83;2.20;;;32.10;1.00;;;;;;5083232;28;47027;-86
2023/07/15 08:55:34;;;;;;;3.43;1.87;;;32.10;1.00;;;;;;5066162;28;46602;-85
2023/07/15 08:58:00;;;;;;;4.87;2.10;;;32.10;1.00;;;;;;5084849;28;46426;-87
2023/07/15 09:00:26;;;;;;;5.87;2.20;;;32.10;1.00;;;;;;5064180;28;48690;-85
2023/07/15 09:02:52;;;;;;;4.07;2.37;;;32.20;1.00;;;;;;5077566;28;46475;-84
2023/07/15 09:05:18;;;;;;;3.57;2.13;;;32.40;1.00;;;;;;5082013;28;46404;-89
2023/07/15 09:07:49;;;;;;;9.10;2.70;;;32.40;1.00;;;;;;5088219;28;46747;-89
2023/07/15 09:10:15;;;;;;;4.97;2.10;;;32.40;1.00;;;;;;5088224;28;49440;-87
2023/07/15 09:12:51;;;;;;;6.57;2.60;;;32.30;1.00;;;;;;5087951;28;45854;-88
2023/07/15 09:15:17;;;;;;;4.80;2.53;;;32.30;1.00;;;;;;5072621;28;46734;-84
2023/07/15 09:17:52;;;;;;;8.00;2.53;;;32.40;1.00;;;;;;5090306;28;47024;-82
2023/07/15 09:20:19;;;;;;;4.87;2.53;;;32.50;1.00;;;;;;5087111;28;46466;-84
2023/07/15 09:22:50;;;;;;;5.00;2.63;;;32.50;1.00;;;;;;5088217;27;46831;-87
2023/07/15 09:25:16;;;;;;;5.17;2.60;;;32.50;1.00;;;;;;5088662;27;46575;-85
2023/07/15 09:27:42;;;;;;;6.53;3.00;;;32.50;1.00;;;;;;5089746;27;46376;-85
2023/07/15 09:30:09;;;;;;;3.73;2.10;;;32.50;1.00;;;;;;5072743;28;49623;-86
2023/07/15 09:32:36;;;;;;;5.90;2.40;;;32.40;1.00;;;;;;5088681;28;47120;-87
2023/07/15 09:35:02;;;;;;;4.70;2.73;;;32.40;1.00;;;;;;5079842;28;46327;-86
2023/07/15 09:37:30;;;;;;;6.17;2.20;;;32.40;1.00;;;;;;5061436;28;46614;-86
2023/07/15 09:40:00;;;;;;;6.10;2.23;;;32.40;1.00;;;;;;5080724;28;46507;-87
2023/07/15 09:42:28;;;;;;;3.77;2.27;;;32.50;1.00;;;;;;5079899;27;45874;-81
2023/07/15 09:44:54;;;;;;;3.60;2.10;;;32.50;1.00;;;;;;5076718;28;46473;-86
2023/07/15 09:47:21;;;;;;;3.87;2.10;;;32.50;1.00;;;;;;5080591;28;46883;-86
2023/07/15 09:49:46;;;;;;;5.33;2.43;;;32.70;1.00;;;;;;5080074;28;46429;-85
2023/07/15 09:52:15;;;;;;;6.00;2.10;;;32.80;1.00;;;;;;5074897;27;46379;-87
2023/07/15 09:54:42;;;;;;;8.43;2.97;;;32.80;1.00;;;;;;5079214;28;46425;-85
2023/07/15 09:57:15;;;;;;;3.70;1.83;;;32.90;1.00;;;;;;5061324;28;47003;-87
2023/07/15 09:59:46;;;;;;;5.33;2.10;;;33.10;1.00;;;;;;5076134;27;47180;-86
2023/07/15 10:02:41;;;;;;;4.40;2.10;;;33.20;1.00;;;;;;5067843;28;46437;-85
2023/07/15 10:05:09;;;;;;;3.80;2.20;;;33.10;1.00;;;;;;5074347;27;46790;-85
2023/07/15 10:07:36;;;;;;;4.73;2.30;;;33.10;1.00;;;;;;5064471;28;46478;-82
2023/07/15 10:10:02;;;;;;;5.20;2.30;;;33.10;1.00;;;;;;5075334;28;47324;-83
2023/07/15 10:12:29;;;;;;;4.67;2.27;;;33.20;1.00;;;;;;5079320;28;46477;-82
2023/07/15 10:14:56;;;;;;;5.10;2.20;;;33.10;1.00;;;;;;5080015;28;46493;-86
2023/07/15 10:17:21;;;;;;;8.00;2.27;;;33.10;1.00;;;;;;5078675;27;46721;-87
2023/07/15 10:19:52;;;;;;;5.90;2.40;;;33.00;1.00;;;;;;5080649;27;47261;-84
2023/07/15 10:22:23;;;;;;;5.30;2.10;;;33.10;1.00;;;;;;5077557;27;46448;-86
2023/07/15 10:24:54;;;;;;;5.00;2.53;;;33.30;1.00;;;;;;5076605;27;46747;-82
2023/07/15 10:27:20;;;;;;;3.97;2.17;;;33.20;1.00;;;;;;5075456;28;46838;-84
2023/07/15 10:29:45;;;;;;;4.10;2.27;;;33.10;1.00;;;;;;5077176;28;46775;-82
2023/07/15 10:32:15;;;;;;;8.03;2.07;;;33.10;1.00;;;;;;5080127;28;46628;-86
2023/07/15 10:34:49;;;;;;;5.30;2.20;;;33.20;1.00;;;;;;5080493;28;46492;-84
2023/07/15 10:37:17;;;;;;;5.30;2.00;;;33.30;1.00;;;;;;5081174;28;46398;-84
2023/07/15 10:39:43;;;;;;;4.47;1.80;;;33.30;1.00;;;;;;5063652;28;48261;-83
2023/07/15 10:42:16;;;;;;;5.00;2.57;;;33.20;1.00;;;;;;5084169;27;47114;-84
2023/07/15 10:44:51;;;;;;;3.87;2.10;;;33.40;1.00;;;;;;5082163;28;46388;-83
2023/07/15 10:47:16;;;;;;;5.30;2.10;;;33.40;1.00;;;;;;5081388;28;46679;-86
2023/07/15 10:49:44;;;;;;;5.27;2.40;;;33.40;1.00;;;;;;5082362;28;46597;-84
2023/07/15 10:52:11;;;;;;;5.00;2.20;;;33.40;1.00;;;;;;5082452;28;46418;-85
2023/07/15 10:54:39;;;;;;;4.80;2.23;;;33.40;1.00;;;;;;5082478;28;46294;-85
2023/07/15 10:57:08;;;;;;;3.60;2.33;;;33.40;1.00;;;;;;5082880;28;46570;-85
2023/07/15 10:59:36;;;;;;;5.43;2.40;;;33.40;1.00;;;;;;5082466;28;46716;-83
2023/07/15 11:02:02;;;;;;;3.87;2.23;;;33.40;1.00;;;;;;5084027;28;46437;-84
2023/07/15 11:04:27;;;;;;;4.30;2.33;;;33.50;1.00;;;;;;5082140;28;46200;-85
2023/07/15 11:06:59;;;;;;;4.37;2.30;;;33.50;1.00;;;;;;5075095;27;48147;-82
2023/07/15 11:09:25;;;;;;;8.30;2.10;;;33.40;1.00;;;;;;5077540;27;46219;-84
2023/07/15 11:11:50;;;;;;;4.57;1.70;;;33.40;1.00;;;;;;5081531;28;46383;-84
2023/07/15 11:14:20;;;;;;;5.60;2.30;;;33.60;1.00;;;;;;5084780;28;46361;-85
2023/07/15 11:16:46;;;;;;;9.27;2.40;;;33.60;1.00;;;;;;5083484;28;46652;-83
2023/07/15 11:19:15;;;;;;;3.90;2.17;;;33.60;1.00;;;;;;5083363;28;46578;-86
2023/07/15 11:21:44;;;;;;;3.73;2.30;;;33.40;1.00;;;;;;5082994;28;46925;-84
2023/07/15 11:24:13;;;;;;;5.13;2.13;;;33.40;1.00;;;;;;5083464;28;46493;-83
2023/07/15 11:26:43;;;;;;;4.57;2.47;;;33.40;1.00;;;;;;5085037;28;46424;-82
2023/07/15 11:29:20;;;;;;;3.40;1.80;;;33.40;1.00;;;;;;5082677;27;48369;-86
2023/07/15 11:31:51;;;;;;;4.00;2.03;;;33.50;1.00;;;;;;5082722;28;46612;-84
2023/07/15 11:34:18;;;;;;;5.57;1.90;;;33.50;1.00;;;;;;5084214;28;46386;-85
2023/07/15 11:36:45;;;;;;;4.30;2.00;;;33.70;1.00;;;;;;5084017;28;46328;-84
2023/07/15 11:39:12;;;;;;;3.53;2.03;;;33.80;1.00;;;;;;5081759;27;48142;-85
2023/07/15 11:41:38;;;;;;;3.40;2.00;;;33.90;1.00;;;;;;5063533;28;46438;-87
2023/07/15 11:44:10;;;;;;;3.40;2.13;;;33.90;1.00;;;;;;5086055;28;45866;-87
2023/07/15 11:46:37;;;;;;;4.27;2.03;;;33.80;1.00;;;;;;5084683;28;46643;-86
2023/07/15 11:49:04;;;;;;;3.87;2.10;;;33.60;1.00;;;;;;5083933;28;46543;-84
2023/07/15 11:51:32;;;;;;;6.80;2.20;;;33.50;1.00;;;;;;5084550;28;46660;-84
2023/07/15 11:53:58;;;;;;;4.00;1.90;;;33.40;1.00;;;;;;5087407;28;46781;-85
2023/07/15 11:56:34;;;;;;;4.17;1.90;;;33.50;1.00;;;;;;5086470;27;46498;-84
2023/07/15 11:58:59;;;;;;;4.43;2.37;;;33.50;1.00;;;;;;5079508;28;47228;-83
2023/07/15 12:01:26;;;;;;;5.60;2.27;;;33.70;1.00;;;;;;5081288;27;46490;-83
2023/07/15 12:03:53;;;;;;;4.00;2.00;;;33.80;1.00;;;;;;5078544;28;45917;-83
2023/07/15 12:06:24;;;;;;;5.77;2.20;;;33.80;1.00;;;;;;5082044;28;46626;-85
2023/07/15 12:09:03;;;;;;;4.77;1.77;;;33.90;1.00;;;;;;5062036;28;48319;-83
2023/07/15 12:11:30;;;;;;;3.50;1.60;;;33.70;1.00;;;;;;5077398;27;46444;-84
2023/07/15 12:13:56;;;;;;;3.23;1.63;;;33.80;1.00;;;;;;5079169;28;46502;-85
2023/07/15 12:16:22;;;;;;;2.80;1.40;;;33.80;1.00;;;;;;5062694;28;46587;-86
2023/07/15 12:18:48;;;;;;;3.53;1.73;;;33.80;1.00;;;;;;5080714;27;46824;-86
2023/07/15 12:21:13;;;;;;;3.70;1.80;;;33.90;1.00;;;;;;5062381;28;46467;-83
2023/07/15 12:23:41;;;;;;;3.20;1.70;;;33.90;1.00;;;;;;5079988;28;46985;-82
2023/07/15 12:26:07;;;;;;;3.77;2.00;;;34.00;1.00;;;;;;5079909;28;46513;-82
2023/07/15 12:28:32;;;;;;;3.10;1.83;;;34.00;1.00;;;;;;5081631;28;46479;-82
2023/07/15 12:30:58;;;;;;;6.30;2.50;;;33.90;1.00;;;;;;5066145;28;46504;-83
2023/07/15 12:33:24;;;;;;;4.40;2.40;;;34.10;1.00;;;;;;5082116;28;46407;-81
2023/07/15 12:35:50;;;;;;;3.90;2.10;;;34.00;1.00;;;;;;5080891;28;46582;-84
2023/07/15 12:38:16;;;;;;;4.63;2.30;;;34.00;1.00;;;;;;5063547;28;46959;-84
2023/07/15 12:40:41;;;;;;;3.83;2.33;;;34.00;1.00;;;;;;5078592;28;46686;-84
2023/07/15 12:43:07;;;;;;;4.13;1.97;;;34.00;1.00;;;;;;5080643;28;46569;-83
2023/07/15 12:45:32;;;;;;;4.00;1.93;;;34.00;1.00;;;;;;5080637;28;46759;-82
2023/07/15 12:47:58;;;;;;;3.47;1.80;;;34.00;1.00;;;;;;5060673;28;47988;-82
2023/07/15 12:50:24;;;;;;;4.20;1.77;;;34.10;1.00;;;;;;5061221;28;46495;-82